Aktualne dane pomiarowe

Uwaga, wersja testowa! Automatyczne pobieranie danych za pomocą narzędzi lub skryptów to umożliwiających jest zabronione.

Dane meteo z obszaru Polski uzyskane na podstawie depesz SYNOP pobieranych co godzinę z NWS. Najedź myszką na symbol przedstawiony w tabeli, aby uzyskać informacje co do jego znaczenia. Prosimy pamiętać, że to testowa wersja strony, która jeszcze nie jest ukończona. Stworzono również jest krótki FAQ dotyczący korzystania z tej podstrony Anomalie temperatury w chwili obecnej odniesione są do okresu referencyjnego 1951-2016. Okres ten będzie później zmieniony na 1981-2010. Kliknij ikonę aby pobrać plik CSV. Kliknij ikonę aby wygenerować mapę synoptyczną dla danego terminu.

Wybierz Datę:    

        

Nowy Sącz (12660)

Dane terminowe dla wybranej stacji. Kliknij datę, aby otrzymać dane z tego terminu dla wszystkich stacji.

TemperaturaZachmurzenieWiatrCiśnienieOpadyPogoda
 Data t td wb tx tn tg rh  Nt Nl Cl Cm Ch ws wd g1 g2 wx mslp ppp ch 24h 12h t ww ww w1 w2  
2019-07-20 23:00:00 18.4 15.3 16.3--- 8223.0--2wx--21017.9 983.3 0.0---------
2019-07-20 22:00:00 18.9 15.4 16.5--- 8026.0--1wx--11018.1 983.6 0.4---------
2019-07-20 21:00:00 19.8 15.4 16.8--- 7630.0--1wx---1017.9 983.5 0.9---------
2019-07-20 20:00:00 20.1 15.7 17.1--- 7630.0--2wx--21017.7 983.3 0.6---------
2019-07-20 19:00:00 20.4 15.6 17.2--- 7426.0--2wx--21017.5 983.2 0.6---------
2019-07-20 18:00:00 22.5 16.3 18.3 27.1 18.3- 6830.0--2wx--21016.7 982.6 0.0- 1.012------
2019-07-20 17:00:00 24.2 15.7 18.7--- 5935.0--1wx--11016.6 982.7 0.2---wx-----
2019-07-20 16:00:00 25.2 16.9 19.7--- 6035.0--2wx--21016.4 982.6 0.0---wx-----
2019-07-20 15:00:00 23.4 16.2 18.6--- 643.4--2wx---1016.6 982.6 -0.4---wx-----
2019-07-20 14:00:00 26.4 13.5 18.4--- 4528.0--2wx--21016.1 982.5 -1.0---------
2019-07-20 13:00:00 26.3 13.4 18.3--- 4535.0--1wx--11016.2 982.6 -1.2---------
2019-07-20 12:00:00 24.7 16.7 19.4--- 6140.0--1wx--11016.8 983.0 -1.1- 0.36wx-----
2019-07-20 11:00:00 26.0 13.8 18.4--- 4729.0--2wx--21017.2 983.5 -0.5---------
2019-07-20 10:00:00 23.3 15.1 18.0--- 6024.0--2wx--21017.8 983.8 0.0---------
2019-07-20 09:00:00 19.8 14.6 16.3--- 7227.0--1wx--11018.5 984.1 0.5---------
2019-07-20 08:00:00 18.3 14.6 15.8--- 7918.0--1wx--11018.6 984.0 0.8---wx-----
2019-07-20 07:00:00 18.5 13.8 15.4--- 7410.0--1wx--11018.4 983.8 0.8---wx-----
2019-07-20 06:00:00 18.4 13.3 15.1 21.8 15.6 15 7230.0--1wx--11018.2 983.6 0.6--12----- 10.7
2019-07-20 05:00:00 17.1 12.8 14.3--- 7630.0--0----1017.9 983.2 0.5---------
2019-07-20 04:00:00 15.8 12.7 13.7--- 8218.0--0---01017.9 983.0 0.3---------
2019-07-20 03:00:00 15.9 12.5 13.6--- 8022.0--1wx--11017.9 983.0 0.3---wx-----
2019-07-20 02:00:00 15.9 12.5 13.6--- 8022.0--1wx--11017.6 982.7 -0.1---------
2019-07-20 01:00:00 16.0 12.0 13.4--- 7722.0--1wx--11017.6 982.7 0.3---------
2019-07-20 00:00:00 17.1 12.0 13.8--- 7220.0--1wx--11017.4 982.7 0.5--6------
2019-07-19 23:00:00 17.0 12.1 13.8--- 7325.0--1wx---1017.5 982.8 0.5---------
2019-07-19 22:00:00 17.2 12.5 14.1--- 7417.0--1wx--11017.1 982.4 0.3---------
2019-07-19 21:00:00 17.6 12.3 14.2--- 7129.0--1wx--11016.8 982.2 0.3---------
2019-07-19 20:00:00 18.7 12.2 14.6--- 6626.0--1wx--11016.8 982.3 0.6---------
2019-07-19 19:00:00 20.0 12.7 15.4--- 6326.0--2wx--21016.4 982.1 0.9---wx-----
2019-07-19 18:00:00 21.8 11.2 15.4 28.5 16.0- 5140.0--0--1001016.0 981.9 1.6- 0.012------
2019-07-19 17:00:00 22.6 11.3 15.8--- 4923.0--2wx-821015.7 981.7 1.2---------
2019-07-19 16:00:00 24.1 10.4 16.0--- 4235.0--2wx8821015.0 981.2 1.0---------
2019-07-19 15:00:00 24.7 10.6 16.3--- 4126.0--2wx-1021014.0 980.3 -0.2---------
2019-07-19 14:00:00 23.5 8.7 15.0--- 3929.0--5wx101051014.4 980.5 -0.2---------
2019-07-19 13:00:00 27.7 8.0 16.4--- 2930.0--2wx--21013.6 980.2 -0.7---------
2019-07-19 12:00:00 26.9 8.3 16.2--- 3130.0--1wx--11014.0 980.5 -0.4- 0.06------
2019-07-19 11:00:00 27.6 9.9 17.2--- 3330.0--2wx--21014.1 980.7 -0.6---------
2019-07-19 10:00:00 25.6 10.2 16.5--- 3828.0--2wx--21014.5 980.9 -0.6---------
2019-07-19 09:00:00 25.0 11.2 16.7--- 4229.0--1wx--11014.6 980.9 -0.7---------
2019-07-19 08:00:00 22.5 12.1 16.1--- 5221.0--2wx--21015.3 981.3 -0.3---------
2019-07-19 07:00:00 19.2 12.0 14.7--- 6330.0--1wx--11015.9 981.5 0.0---------
2019-07-19 06:00:00 16.0 11.4 13.0 21.2 9.5 8 7426.0--1wx--11016.4 981.6 0.1- 0.012----- 9.9
2019-07-19 05:00:00 12.2 10.1 10.8--- 8719.0--1wx--11016.9 981.6 0.2---------
2019-07-19 04:00:00 9.9 8.5 8.9--- 9113.0--1wx--11017.1 981.5 0.2---------
2019-07-19 03:00:00 9.6 8.0 8.5--- 909.0--0---01017.1 981.5 0.4---wx-----
2019-07-19 02:00:00 10.3 8.7 9.2--- 9014.0--1wx--11016.9 981.4 0.4---------
2019-07-19 01:00:00 10.7 8.6 9.3--- 8713.0--0---01016.8 981.3 0.6---------
2019-07-19 00:00:00 11.8 9.7 10.4--- 8713.0--1wx--11016.4 981.1 0.7- 0.06------
1.6 ms

 

Print Friendly, PDF & Email